Cape Mathilde — HOVQ — position and weather

sailwx.info

Track history (hours):
 
Tides and Currents Weather Stations Pressure Air Temp Water Temp Dewpoint Dewpoint Depression Visibility Wind Speed Wind Dir Waves Ship Positions

Cape Mathilde

Last reported at 2018-Jul-16 06:37 UTC. Time now 2018-Jul-20 21:56 UTC.
Position N 01°26' E 104°30'.

Length 292 m; draft 18 m.

Type: Cargo ship. MMSI: 352665000.

Date/timePositionNaut miles runAvg speedWind from/ knotsBaromVisibWave heightAir tempDewpointWater temp
2018-Jul-16 06:37N 01°26' E 104°30'310.8
2018-Jul-16 06:19N 01°24' E 104°28'410.6
2018-Jul-16 05:56N 01°22' E 104°25'510.2
2018-Jul-16 05:29N 01°19' E 104°21'5 9.5
2018-Jul-16 04:59N 01°17' E 104°17'510.4
2018-Jul-16 04:30N 01°16' E 104°12'610.7
2018-Jul-16 03:54N 01°15' E 104°06'410.1
2018-Jul-16 03:30N 01°15' E 104°02'3 5.6
2018-Jul-16 02:59N 01°17' E 103°59'0 0.4
2018-Jul-16 02:24N 01°17' E 103°59'0 0.0
2018-Jul-16 01:59N 01°17' E 103°59'0 0.1
2018-Jul-16 01:24N 01°17' E 103°59'0 0.0
2018-Jul-16 00:54N 01°17' E 103°59'0 0.0
2018-Jul-16 00:29N 01°17' E 103°59'0 0.1
2018-Jul-15 23:57N 01°17' E 103°59'0 0.1
2018-Jul-15 23:30N 01°17' E 103°59'0 0.2
2018-Jul-15 22:59N 01°17' E 103°59'0 0.0
2018-Jul-15 22:26N 01°17' E 103°59'0 0.2
2018-Jul-15 21:50N 01°17' E 103°59'0 0.2
2018-Jul-15 21:27N 01°17' E 103°59'0 0.0
2018-Jul-15 20:45N 01°17' E 103°59'0 0.0
2018-Jul-15 20:30N 01°17' E 103°59'0 0.0
2018-Jul-15 19:51N 01°17' E 103°59'0 0.0
2018-Jul-15 19:27N 01°17' E 103°59'0 0.1
2018-Jul-15 18:50N 01°17' E 103°59'0 0.0
2018-Jul-15 18:30N 01°17' E 103°59'0 0.2
2018-Jul-15 17:42N 01°17' E 103°59'0 0.6
2018-Jul-15 17:30N 01°17' E 103°59'0 0.2
2018-Jul-15 16:51N 01°17' E 103°59'0 0.1
2018-Jul-15 16:29N 01°17' E 103°59'0 0.1
2018-Jul-15 15:57N 01°17' E 103°59'0 0.0
2018-Jul-15 15:30N 01°17' E 103°59'0 0.5
2018-Jul-15 14:58N 01°17' E 103°59'2 3.6
2018-Jul-15 14:30N 01°16' E 103°58'2 3.3
2018-Jul-15 13:59N 01°15' E 103°56'2 3.3
2018-Jul-15 13:30N 01°13' E 103°55'4 7.7
2018-Jul-15 13:01N 01°12' E 103°52'4 8.1
2018-Jul-15 12:30N 01°10' E 103°48'4 7.2
2018-Jul-15 12:00N 01°08' E 103°45'3 6.0
2018-Jul-15 11:30N 01°06' E 103°43'5 8.8
2018-Jul-15 10:59N 01°04' E 103°39'510.6
2018-Jul-15 10:30N 01°06' E 103°34'611.2
2018-Jul-15 09:55N 01°09' E 103°29'511.5
2018-Jul-15 09:30N 01°11' E 103°25'611.8
2018-Jul-15 08:59N 01°15' E 103°20'611.7
2018-Jul-15 08:28N 01°19' E 103°15'612.0
2018-Jul-15 07:55N 01°23' E 103°10'  
Track history (hours):
 
Tides and Currents Weather Stations Pressure Air Temp Water Temp Dewpoint Dewpoint Depression Visibility Wind Speed Wind Dir Waves Ship Positions

Cape Mathilde

Last reported at 2018-Jul-16 06:37 UTC. Time now 2018-Jul-20 21:56 UTC.
Position N 01°26' E 104°30'.

Length 292 m; draft 18 m.

Type: Cargo ship. MMSI: 352665000.

Date/timePositionNaut miles runAvg speedWind from/ knotsBaromVisibWave heightAir tempDewpointWater temp
2018-Jul-16 06:37N 01°26' E 104°30'310.8
2018-Jul-16 06:19N 01°24' E 104°28'410.6
2018-Jul-16 05:56N 01°22' E 104°25'510.2
2018-Jul-16 05:29N 01°19' E 104°21'5 9.5
2018-Jul-16 04:59N 01°17' E 104°17'510.4
2018-Jul-16 04:30N 01°16' E 104°12'610.7
2018-Jul-16 03:54N 01°15' E 104°06'410.1
2018-Jul-16 03:30N 01°15' E 104°02'3 5.6
2018-Jul-16 02:59N 01°17' E 103°59'0 0.4
2018-Jul-16 02:24N 01°17' E 103°59'0 0.0
2018-Jul-16 01:59N 01°17' E 103°59'0 0.1
2018-Jul-16 01:24N 01°17' E 103°59'0 0.0
2018-Jul-16 00:54N 01°17' E 103°59'0 0.0
2018-Jul-16 00:29N 01°17' E 103°59'0 0.1
2018-Jul-15 23:57N 01°17' E 103°59'0 0.1
2018-Jul-15 23:30N 01°17' E 103°59'0 0.2
2018-Jul-15 22:59N 01°17' E 103°59'0 0.0
2018-Jul-15 22:26N 01°17' E 103°59'0 0.2
2018-Jul-15 21:50N 01°17' E 103°59'0 0.2
2018-Jul-15 21:27N 01°17' E 103°59'0 0.0
2018-Jul-15 20:45N 01°17' E 103°59'0 0.0
2018-Jul-15 20:30N 01°17' E 103°59'0 0.0
2018-Jul-15 19:51N 01°17' E 103°59'0 0.0
2018-Jul-15 19:27N 01°17' E 103°59'0 0.1
2018-Jul-15 18:50N 01°17' E 103°59'0 0.0
2018-Jul-15 18:30N 01°17' E 103°59'0 0.2
2018-Jul-15 17:42N 01°17' E 103°59'0 0.6
2018-Jul-15 17:30N 01°17' E 103°59'0 0.2
2018-Jul-15 16:51N 01°17' E 103°59'0 0.1
2018-Jul-15 16:29N 01°17' E 103°59'0 0.1
2018-Jul-15 15:57N 01°17' E 103°59'0 0.0
2018-Jul-15 15:30N 01°17' E 103°59'0 0.5
2018-Jul-15 14:58N 01°17' E 103°59'2 3.6
2018-Jul-15 14:30N 01°16' E 103°58'2 3.3
2018-Jul-15 13:59N 01°15' E 103°56'2 3.3
2018-Jul-15 13:30N 01°13' E 103°55'4 7.7
2018-Jul-15 13:01N 01°12' E 103°52'4 8.1
2018-Jul-15 12:30N 01°10' E 103°48'4 7.2
2018-Jul-15 12:00N 01°08' E 103°45'3 6.0
2018-Jul-15 11:30N 01°06' E 103°43'5 8.8
2018-Jul-15 10:59N 01°04' E 103°39'510.6
2018-Jul-15 10:30N 01°06' E 103°34'611.2
2018-Jul-15 09:55N 01°09' E 103°29'511.5
2018-Jul-15 09:30N 01°11' E 103°25'611.8
2018-Jul-15 08:59N 01°15' E 103°20'611.7
2018-Jul-15 08:28N 01°19' E 103°15'612.0
2018-Jul-15 07:55N 01°23' E 103°10'  

Dump ship's entire track history